Aeroporto :
LOGIN :

Iscrizione | Disclaimer

   EN    FR    IT 

 










Sommario :    VFR   VFR Marginale   IFR   IFR Intensivo   IFR Molto Intensivo
Visibilità : 
Base nubi : 
>= 8 km
>= 3000ft
5 / 8 km
1000 / 3000 ft
1500m / 5 km
500 / 1000 ft
800 / 1500m
200 / 500 ft
< 800m
< 200 ft
Simboli :   Temporali  Nebbia  Neve Forte  Precipitazioni Forti  Vento > 20 kt
SIGMETs :   Varie  Temporali  Ghiacco  Turbolenza  Onda orograficha  Ceneri Vulcaniche






- Altitudine del aeroporto : 349 ft
- Codice IATA : LPP


EFLP - Lappeenranta

ULTIMO METAR :
  • 270950Z AUTO 01003KT 330V050 CAVOK 20/02 Q1022

METARs OBSOLETI :
  • 270920Z AUTO 02004KT 320V060 CAVOK 21/04 Q1022
  • 270850Z AUTO 03004KT 330V100 CAVOK 20/02 Q1022
  • 270820Z AUTO VRB04KT CAVOK 20/04 Q1023
  • 270750Z AUTO 36003KT 290V050 CAVOK 19/03 Q1023
  • 270720Z AUTO 36003KT 290V090 CAVOK 19/03 Q1023

Previsioni scadute.



MetMap, La meteo Aeronautica in un colpo d'occhio ! - Copyright ORBIFLY Dicembre 2007 - Disclaimer

ORBIFLY MET'MAP TEAM :

Programmazione e sviluppo : Alexandra Zaïnal
Concezione : Baudouin d'Aumeries
Aiuto per la programmazione : Marc-Olivier Méhu
Supporto tecnico e logistico : Manuel Goepfert
Aiuto per la traduzione : Arnaldo La Scala

Contatto : metmap@orbifly.com




FONTI E CREDITI :

   NOAA